Time;durP1;ratioP1;P1;durP2;ratioP2;P2;SDS_P1;SDS_P2;PMS_P1;PMS_P2;Temp;Humidity;BMP_temperature;BMP_pressure;BME280_temperature;BME280_humidity;BME280_pressure;Samples;Min_cycle;Max_cycle;Signal;HPM_P1;HPM_P2
2022/01/14 00:01:43;;;;;;;9.15;1.48;;;5.50;99.90;;;;;;4427525;32;20101;-63
2022/01/14 00:04:09;;;;;;;1.42;1.23;;;5.50;99.90;;;;;;4440303;32;20092;-64
2022/01/14 00:06:34;;;;;;;3.75;1.58;;;5.50;99.90;;;;;;4427428;32;20161;-63
2022/01/14 00:09:09;;;;;;;2.00;1.80;;;5.60;99.90;;;;;;4442374;32;20462;-63
2022/01/14 00:11:39;;;;;;;0.65;0.65;;;5.60;99.90;;;;;;4442407;32;20572;-64
2022/01/14 00:16:32;;;;;;;0.70;0.70;;;5.60;99.90;;;;;;4441509;32;20065;-63
2022/01/14 00:18:58;;;;;;;1.20;0.95;;;5.60;99.90;;;;;;4441638;32;20085;-63
2022/01/14 00:21:25;;;;;;;3.40;1.58;;;5.60;99.90;;;;;;4437729;32;20068;-63
2022/01/14 00:23:53;;;;;;;1.35;1.00;;;5.60;99.90;;;;;;4442402;32;20124;-63
2022/01/14 00:31:53;;;;;;;5.47;2.67;;;5.60;99.90;;;;;;4430091;32;20185;-64
2022/01/14 00:34:19;;;;;;;1.50;1.00;;;5.60;99.90;;;;;;4428338;32;20081;-63
2022/01/14 00:36:45;;;;;;;0.85;0.82;;;5.60;99.90;;;;;;4441906;32;20061;-63
2022/01/14 00:39:13;;;;;;;2.53;1.30;;;5.70;99.90;;;;;;4427128;32;20085;-63
2022/01/14 00:41:39;;;;;;;0.57;0.57;;;5.70;99.90;;;;;;4441424;32;20105;-64
2022/01/14 00:44:10;;;;;;;1.00;1.00;;;5.70;99.90;;;;;;4440876;32;20164;-62
2022/01/14 00:46:37;;;;;;;3.20;1.73;;;5.60;99.90;;;;;;4441491;32;20084;-63
2022/01/14 00:49:03;;;;;;;1.00;1.00;;;5.60;99.90;;;;;;4414923;32;20123;-63
2022/01/14 00:51:28;;;;;;;0.93;0.77;;;5.70;99.90;;;;;;4442831;32;20806;-63
2022/01/14 00:53:54;;;;;;;2.85;1.00;;;5.70;99.90;;;;;;4442401;32;20062;-63
2022/01/14 00:56:29;;;;;;;2.50;1.33;;;5.70;99.90;;;;;;4441336;32;20580;-62
2022/01/14 00:59:27;;;;;;;0.50;0.50;;;5.70;99.90;;;;;;4437359;32;20127;-63
2022/01/14 01:01:48;;;;;;;2.08;1.45;;;5.70;99.90;;;;;;4426177;32;20148;-62
2022/01/14 01:04:15;;;;;;;0.93;0.93;;;5.70;99.90;;;;;;4437810;32;20069;-64
2022/01/14 01:06:42;;;;;;;5.28;2.47;;;5.70;99.90;;;;;;4446757;32;20561;-63
2022/01/14 01:09:11;;;;;;;0.93;0.85;;;5.70;99.90;;;;;;4446008;32;20078;-63
2022/01/14 01:11:41;;;;;;;1.40;1.17;;;5.70;99.90;;;;;;4445218;32;20077;-62
2022/01/14 01:14:12;;;;;;;1.23;1.13;;;5.70;99.90;;;;;;4445502;32;20491;-63
2022/01/14 01:16:38;;;;;;;19.35;2.33;;;5.70;99.90;;;;;;4444731;32;20224;-63
2022/01/14 01:19:04;;;;;;;1.30;1.20;;;5.70;99.90;;;;;;4446200;32;20792;-63
2022/01/14 01:21:30;;;;;;;2.58;1.60;;;5.70;99.90;;;;;;4447103;32;20533;-64
2022/01/14 01:23:55;;;;;;;2.78;1.83;;;5.70;99.90;;;;;;4445334;32;20084;-63
2022/01/14 01:26:29;;;;;;;0.70;0.70;;;5.70;99.90;;;;;;4444763;32;20088;-63
2022/01/14 01:29:01;;;;;;;1.87;1.70;;;5.80;99.90;;;;;;4446767;32;20076;-63
2022/01/14 01:31:35;;;;;;;2.60;1.48;;;5.70;99.90;;;;;;4445711;32;20524;-63
2022/01/14 01:34:04;;;;;;;1.45;1.05;;;5.80;99.90;;;;;;4444934;32;20077;-63
2022/01/14 01:36:29;;;;;;;2.58;2.10;;;5.80;99.90;;;;;;4443437;32;20159;-64
2022/01/14 01:38:55;;;;;;;4.18;1.67;;;5.80;99.90;;;;;;4445728;32;20069;-63
2022/01/14 01:41:21;;;;;;;3.05;1.98;;;5.70;99.90;;;;;;4445253;32;20073;-63
2022/01/14 01:43:51;;;;;;;27.58;1.50;;;5.70;99.90;;;;;;4431247;32;20516;-63
2022/01/14 01:46:19;;;;;;;0.88;0.88;;;5.70;99.90;;;;;;4445929;32;20073;-63
2022/01/14 01:48:45;;;;;;;3.15;1.65;;;5.80;99.90;;;;;;4446744;32;20112;-63
2022/01/14 01:51:11;;;;;;;1.37;1.02;;;5.80;99.90;;;;;;4447046;32;20072;-63
2022/01/14 01:53:36;;;;;;;7.80;1.60;;;5.80;99.90;;;;;;4445916;32;20085;-63
2022/01/14 01:56:02;;;;;;;6.47;2.67;;;5.80;99.90;;;;;;4430507;32;20076;-62
2022/01/14 01:58:27;;;;;;;2.42;1.42;;;5.80;99.90;;;;;;4444506;32;20532;-63
2022/01/14 02:00:53;;;;;;;10.15;1.42;;;5.80;99.90;;;;;;4445083;32;20072;-63
2022/01/14 02:03:18;;;;;;;1.50;1.37;;;5.80;99.90;;;;;;4445467;32;20081;-63
2022/01/14 02:05:44;;;;;;;27.98;1.45;;;5.80;99.90;;;;;;4431674;32;20069;-63
2022/01/14 02:08:10;;;;;;;2.45;1.40;;;5.80;99.90;;;;;;4446626;32;20505;-63
2022/01/14 02:10:37;;;;;;;5.90;1.73;;;5.80;99.90;;;;;;4444753;32;20508;-63
2022/01/14 02:13:03;;;;;;;0.65;0.65;;;5.80;99.90;;;;;;4447243;32;20065;-63
2022/01/14 02:22:17;;;;;;;1.55;1.12;;;5.80;99.90;;;;;;4443221;32;20148;-63
2022/01/14 02:23:33;;;;;;;2.35;1.50;;;5.80;99.90;;;;;;4430690;32;20132;-63
2022/01/14 02:25:58;;;;;;;4.97;1.83;;;5.80;99.90;;;;;;4441859;32;20072;-63
2022/01/14 02:28:24;;;;;;;1.87;1.58;;;5.70;99.90;;;;;;4444008;32;20089;-63
2022/01/14 02:30:50;;;;;;;0.68;0.68;;;5.70;99.90;;;;;;4441556;32;20138;-63
2022/01/14 02:33:17;;;;;;;2.62;1.77;;;5.70;99.90;;;;;;4442946;32;20506;-62
2022/01/14 02:35:46;;;;;;;1.15;1.10;;;5.70;99.90;;;;;;4442456;32;20136;-63
2022/01/14 02:38:14;;;;;;;1.17;0.73;;;5.70;99.90;;;;;;4428813;32;20089;-63
2022/01/14 02:40:41;;;;;;;4.25;2.05;;;5.70;99.90;;;;;;4426349;32;20161;-63
2022/01/14 02:43:12;;;;;;;2.20;1.35;;;5.70;99.90;;;;;;4430531;32;20081;-63
2022/01/14 02:45:38;;;;;;;5.50;2.20;;;5.70;99.90;;;;;;4429872;32;20086;-63
2022/01/14 02:48:04;;;;;;;6.80;1.98;;;5.70;99.90;;;;;;4430076;32;20100;-63
2022/01/14 02:50:38;;;;;;;3.65;2.08;;;5.70;99.90;;;;;;4441786;32;20521;-63
2022/01/14 02:53:13;;;;;;;2.58;1.50;;;5.70;99.90;;;;;;4429525;32;20120;-63
2022/01/14 02:55:43;;;;;;;0.70;0.70;;;5.70;99.90;;;;;;4427066;32;20078;-63
2022/01/14 02:58:10;;;;;;;3.15;1.65;;;5.80;99.90;;;;;;4443058;32;20442;-63
2022/01/14 03:00:36;;;;;;;7.97;2.20;;;5.70;99.90;;;;;;4444162;32;20085;-63
2022/01/14 03:03:04;;;;;;;1.85;1.00;;;5.70;99.90;;;;;;4427768;32;20529;-63
2022/01/14 03:05:31;;;;;;;0.93;0.93;;;5.60;99.90;;;;;;4429498;32;20085;-63
2022/01/14 03:07:56;;;;;;;6.03;2.67;;;5.60;99.90;;;;;;4439971;32;20570;-63
2022/01/14 03:10:22;;;;;;;7.12;1.62;;;5.60;99.90;;;;;;4443230;32;20065;-63
2022/01/14 03:12:48;;;;;;;0.88;0.77;;;5.60;99.90;;;;;;4443778;32;20457;-63
2022/01/14 03:15:15;;;;;;;1.50;1.40;;;5.60;99.90;;;;;;4440913;32;20495;-63
2022/01/14 03:17:41;;;;;;;0.98;0.93;;;5.60;99.90;;;;;;4442867;32;20134;-63
2022/01/14 03:20:10;;;;;;;4.05;1.92;;;5.50;99.90;;;;;;4442057;32;20136;-63
2022/01/14 03:22:36;;;;;;;1.58;1.05;;;5.60;99.90;;;;;;4442538;32;20127;-63
2022/01/14 03:25:48;;;;;;;11.38;1.77;;;5.60;99.90;;;;;;4441656;32;20123;-63
2022/01/14 03:27:50;;;;;;;2.20;0.88;;;5.60;99.90;;;;;;4418741;32;20124;-63
2022/01/14 03:30:16;;;;;;;1.70;1.58;;;5.50;99.90;;;;;;4442051;32;20115;-63
2022/01/14 03:32:42;;;;;;;1.12;0.93;;;5.50;99.90;;;;;;4443824;32;20060;-63
2022/01/14 03:35:10;;;;;;;19.95;1.15;;;5.50;99.90;;;;;;4442086;32;20081;-62
2022/01/14 03:37:36;;;;;;;3.53;2.33;;;5.40;99.90;;;;;;4443431;32;20069;-63
2022/01/14 03:40:03;;;;;;;1.80;1.30;;;5.40;99.90;;;;;;4427258;32;20353;-63
2022/01/14 03:42:29;;;;;;;1.67;1.52;;;5.40;99.90;;;;;;4427481;32;20481;-63
2022/01/14 03:44:54;;;;;;;1.15;1.02;;;5.40;99.90;;;;;;4440888;32;20090;-63
2022/01/14 03:47:20;;;;;;;6.75;1.70;;;5.40;99.90;;;;;;4443771;32;20072;-64
2022/01/14 03:49:45;;;;;;;2.62;1.58;;;5.40;99.90;;;;;;4441933;32;20072;-63
2022/01/14 03:52:11;;;;;;;0.55;0.55;;;5.40;99.90;;;;;;4441681;32;20069;-63
2022/01/14 03:54:36;;;;;;;0.98;0.90;;;5.30;99.90;;;;;;4427129;32;20092;-63
2022/01/14 03:57:02;;;;;;;4.53;1.37;;;5.30;99.90;;;;;;4440189;32;20065;-63
2022/01/14 03:59:27;;;;;;;2.83;1.73;;;5.30;99.90;;;;;;4443499;32;20108;-63
2022/01/14 04:01:53;;;;;;;1.27;1.10;;;5.30;99.90;;;;;;4429249;32;20073;-63
2022/01/14 04:04:18;;;;;;;4.32;1.27;;;5.30;99.90;;;;;;4443537;32;20419;-63
2022/01/14 04:06:44;;;;;;;1.15;1.12;;;5.30;99.90;;;;;;4443437;32;20134;-63
2022/01/14 04:09:09;;;;;;;1.65;0.82;;;5.30;99.90;;;;;;4443657;32;20083;-63
2022/01/14 04:11:35;;;;;;;2.37;1.33;;;5.30;99.90;;;;;;4442533;32;20089;-63
2022/01/14 04:16:47;;;;;;;1.87;1.70;;;5.30;99.90;;;;;;4429579;32;20060;-63
2022/01/14 04:19:12;;;;;;;1.55;1.30;;;5.30;99.90;;;;;;4443196;32;20770;-63
2022/01/14 04:21:38;;;;;;;5.65;0.88;;;5.30;99.90;;;;;;4441271;32;20057;-63
2022/01/14 04:24:04;;;;;;;0.70;0.70;;;5.30;99.90;;;;;;4441001;32;20233;-63
2022/01/14 04:26:29;;;;;;;1.75;1.35;;;5.30;99.90;;;;;;4439583;32;20074;-63
2022/01/14 04:28:55;;;;;;;3.40;1.48;;;5.30;99.90;;;;;;4441232;32;21260;-63
2022/01/14 04:31:20;;;;;;;1.95;1.73;;;5.30;99.90;;;;;;4441559;32;20126;-64
2022/01/14 04:33:46;;;;;;;10.60;3.17;;;5.30;99.90;;;;;;4439155;32;80258;-63
2022/01/14 04:36:11;;;;;;;6.47;3.05;;;5.30;99.90;;;;;;4439195;32;20088;-63
2022/01/14 04:38:37;;;;;;;2.80;1.65;;;5.30;99.90;;;;;;4443057;32;20065;-63
2022/01/14 04:41:03;;;;;;;1.45;1.17;;;5.30;99.90;;;;;;4440728;32;20123;-63
2022/01/14 04:43:29;;;;;;;2.60;1.85;;;5.40;99.90;;;;;;4441103;32;20513;-63
2022/01/14 04:46:34;;;;;;;2.12;1.05;;;5.40;99.90;;;;;;4426161;32;20066;-63
2022/01/14 04:48:41;;;;;;;1.87;1.25;;;5.30;99.90;;;;;;4419279;32;20266;-63
2022/01/14 04:51:08;;;;;;;3.40;1.30;;;5.40;99.90;;;;;;4440704;32;20101;-63
2022/01/14 04:53:34;;;;;;;2.40;1.75;;;5.30;99.90;;;;;;4441698;32;20575;-64
2022/01/14 04:56:00;;;;;;;3.47;1.80;;;5.30;99.90;;;;;;4425952;32;20481;-63
2022/01/14 04:58:27;;;;;;;2.87;2.03;;;5.30;99.90;;;;;;4442402;32;20085;-63
2022/01/14 05:00:53;;;;;;;1.55;1.17;;;5.30;99.90;;;;;;4425996;32;20081;-63
2022/01/14 05:03:19;;;;;;;0.60;0.60;;;5.20;99.90;;;;;;4442270;32;20532;-63
2022/01/14 05:05:47;;;;;;;4.07;1.75;;;5.20;99.90;;;;;;4440642;32;20085;-63
2022/01/14 05:08:21;;;;;;;7.45;2.58;;;5.20;99.90;;;;;;4442676;32;20123;-63
2022/01/14 05:13:14;;;;;;;1.85;1.60;;;5.20;99.90;;;;;;4440975;32;20563;-63
2022/01/14 05:15:40;;;;;;;0.85;0.85;;;5.20;99.90;;;;;;4440173;32;20065;-62
2022/01/14 05:18:05;;;;;;;1.40;1.30;;;5.20;99.90;;;;;;4440799;32;20691;-65
2022/01/14 05:20:31;;;;;;;2.35;1.23;;;5.20;99.90;;;;;;4440610;32;20082;-62
2022/01/14 05:22:57;;;;;;;0.77;0.77;;;5.30;99.90;;;;;;4432832;32;20449;-62
2022/01/14 05:25:23;;;;;;;11.32;2.12;;;5.30;99.90;;;;;;4437459;32;20073;-63
2022/01/14 05:27:51;;;;;;;1.65;0.98;;;5.30;99.90;;;;;;4438721;32;20301;-62
2022/01/14 05:30:18;;;;;;;5.32;1.58;;;5.30;99.90;;;;;;4436887;32;20073;-63
2022/01/14 05:32:53;;;;;;;1.02;0.93;;;5.30;99.90;;;;;;4439666;32;20070;-63
2022/01/14 05:35:22;;;;;;;5.18;2.08;;;5.20;99.90;;;;;;4439132;32;20077;-63
2022/01/14 05:37:47;;;;;;;4.25;1.73;;;5.20;99.90;;;;;;4440670;32;20081;-63
2022/01/14 05:40:14;;;;;;;0.73;0.73;;;5.20;99.90;;;;;;4437786;32;20117;-64
2022/01/14 05:42:40;;;;;;;6.70;2.00;;;5.20;99.90;;;;;;4441559;32;20101;-63
2022/01/14 05:45:09;;;;;;;1.52;1.20;;;5.20;99.90;;;;;;4439402;32;20065;-62
2022/01/14 05:47:35;;;;;;;6.25;1.95;;;5.10;99.90;;;;;;4440478;32;20060;-62
2022/01/14 05:50:02;;;;;;;3.22;1.33;;;5.10;99.90;;;;;;4440826;32;20077;-64
2022/01/14 05:52:28;;;;;;;1.70;1.58;;;5.10;99.90;;;;;;4442826;32;20074;-64
2022/01/14 05:54:53;;;;;;;2.58;1.67;;;5.20;99.90;;;;;;4441706;32;20086;-65
2022/01/14 05:57:20;;;;;;;9.43;2.10;;;5.20;99.90;;;;;;4441723;32;20453;-62
2022/01/14 05:59:46;;;;;;;5.82;2.85;;;5.10;99.90;;;;;;4440285;32;20080;-62
2022/01/14 06:02:11;;;;;;;9.73;3.08;;;5.10;99.90;;;;;;4434365;32;20083;-64
2022/01/14 06:04:37;;;;;;;9.65;2.72;;;5.10;99.90;;;;;;4437861;32;20069;-63
2022/01/14 06:07:04;;;;;;;1.65;1.20;;;5.10;99.90;;;;;;4440343;32;20076;-62
2022/01/14 06:09:29;;;;;;;3.15;2.45;;;5.00;99.90;;;;;;4441236;32;20537;-63
2022/01/14 06:11:55;;;;;;;8.88;1.92;;;5.00;99.90;;;;;;4439736;32;20078;-63
2022/01/14 06:14:21;;;;;;;7.60;1.83;;;5.00;99.90;;;;;;4443821;32;20521;-63
2022/01/14 06:16:47;;;;;;;4.80;2.03;;;5.00;99.90;;;;;;4434174;32;20100;-63
2022/01/14 06:19:13;;;;;;;2.22;2.03;;;5.00;99.90;;;;;;4431020;32;20202;-63
2022/01/14 06:21:39;;;;;;;1.67;1.55;;;5.00;99.90;;;;;;4441452;32;20116;-63
2022/01/14 06:24:04;;;;;;;4.50;2.58;;;5.00;99.90;;;;;;4442842;32;20441;-63
2022/01/14 06:26:30;;;;;;;1.17;1.12;;;5.00;99.90;;;;;;4428216;32;20092;-63
2022/01/14 06:28:56;;;;;;;12.02;2.90;;;4.90;99.90;;;;;;4434088;32;20643;-63
2022/01/14 06:31:21;;;;;;;5.40;3.12;;;4.90;99.90;;;;;;4417151;32;20293;-63
2022/01/14 06:33:47;;;;;;;7.35;3.12;;;4.90;99.90;;;;;;4435341;32;20085;-63
2022/01/14 06:36:14;;;;;;;6.75;2.10;;;4.90;99.90;;;;;;4418368;32;20056;-63
2022/01/14 06:38:40;;;;;;;5.75;1.52;;;4.90;99.90;;;;;;4435612;32;20569;-63
2022/01/14 06:41:26;;;;;;;6.93;1.95;;;5.00;99.90;;;;;;4437183;32;20081;-63
2022/01/14 06:43:52;;;;;;;1.10;1.05;;;5.00;99.90;;;;;;4435825;32;20092;-63
2022/01/14 06:46:18;;;;;;;6.68;1.85;;;5.00;99.90;;;;;;4423361;32;20097;-65
2022/01/14 06:48:44;;;;;;;2.80;1.87;;;5.10;99.90;;;;;;4417042;32;20147;-65
2022/01/14 06:51:15;;;;;;;5.78;2.33;;;5.10;99.90;;;;;;4435557;32;20077;-65
2022/01/14 06:53:41;;;;;;;6.57;2.17;;;5.10;99.90;;;;;;4408804;32;20117;-66
2022/01/14 06:56:07;;;;;;;2.30;2.10;;;5.20;99.90;;;;;;4429136;32;20111;-67
2022/01/14 06:58:33;;;;;;;8.43;2.50;;;5.10;99.90;;;;;;4417436;32;20096;-66
2022/01/14 07:00:58;;;;;;;1.90;1.33;;;5.10;99.90;;;;;;4422084;32;20559;-67
2022/01/14 07:03:25;;;;;;;4.43;2.25;;;5.20;99.90;;;;;;4420465;32;20089;-67
2022/01/14 07:05:51;;;;;;;1.25;1.25;;;5.30;99.90;;;;;;4414949;32;20177;-68
2022/01/14 07:08:16;;;;;;;2.15;1.17;;;5.30;99.90;;;;;;4431023;32;20093;-67
2022/01/14 07:10:44;;;;;;;5.85;2.22;;;5.30;99.90;;;;;;4423945;32;20081;-68
2022/01/14 07:13:10;;;;;;;5.70;2.12;;;5.30;99.90;;;;;;4427470;32;20182;-67
2022/01/14 07:15:36;;;;;;;1.08;1.08;;;5.30;99.90;;;;;;4425159;32;20088;-67
2022/01/14 07:18:01;;;;;;;11.40;2.95;;;5.30;99.90;;;;;;4429016;32;20548;-66
2022/01/14 07:20:27;;;;;;;3.00;1.10;;;5.30;99.90;;;;;;4427783;32;20122;-66
2022/01/14 07:22:52;;;;;;;2.67;1.60;;;5.30;99.90;;;;;;4429039;32;20093;-67
2022/01/14 07:25:18;;;;;;;1.42;1.10;;;5.30;99.90;;;;;;4424781;32;20448;-66
2022/01/14 07:27:44;;;;;;;6.43;3.50;;;5.30;99.90;;;;;;4424024;32;20088;-67
2022/01/14 07:30:10;;;;;;;2.85;1.48;;;5.30;99.90;;;;;;4423931;32;20453;-67
2022/01/14 07:32:36;;;;;;;0.95;0.95;;;5.30;99.90;;;;;;4411297;32;20525;-67
2022/01/14 07:35:03;;;;;;;1.42;1.05;;;5.30;99.90;;;;;;4427449;32;20097;-66
2022/01/14 07:37:29;;;;;;;0.90;0.90;;;5.30;99.90;;;;;;4430083;32;20115;-66
2022/01/14 07:39:55;;;;;;;7.95;1.40;;;5.30;99.90;;;;;;4431247;32;20088;-66
2022/01/14 07:42:21;;;;;;;1.98;1.77;;;5.30;99.90;;;;;;4429303;32;20113;-66
2022/01/14 07:44:48;;;;;;;2.72;0.80;;;5.30;99.90;;;;;;4431044;32;20080;-69
2022/01/14 07:47:13;;;;;;;3.15;1.87;;;5.30;99.90;;;;;;4430868;32;20088;-66
2022/01/14 07:49:39;;;;;;;1.83;1.08;;;5.30;99.90;;;;;;4434350;32;20422;-67
2022/01/14 07:52:05;;;;;;;1.87;1.20;;;5.40;99.90;;;;;;4433397;32;20128;-66
2022/01/14 07:54:30;;;;;;;1.30;1.20;;;5.30;99.90;;;;;;4427909;32;20077;-66
2022/01/14 07:56:58;;;;;;;3.83;1.98;;;5.30;99.90;;;;;;4426332;32;20392;-67
2022/01/14 07:59:25;;;;;;;1.25;1.15;;;5.30;99.90;;;;;;4431004;32;20073;-66
2022/01/14 08:01:55;;;;;;;4.97;2.90;;;5.30;99.90;;;;;;4412283;32;20549;-66
2022/01/14 08:04:21;;;;;;;0.68;0.68;;;5.30;99.90;;;;;;4432288;32;20065;-67
2022/01/14 08:06:49;;;;;;;2.92;1.48;;;5.30;99.90;;;;;;4428995;32;20088;-67
2022/01/14 08:09:16;;;;;;;0.82;0.82;;;5.40;99.90;;;;;;4429546;32;20459;-67
2022/01/14 08:11:43;;;;;;;2.95;1.35;;;5.40;99.90;;;;;;4430041;32;20081;-67
2022/01/14 08:14:09;;;;;;;1.20;0.77;;;5.40;99.90;;;;;;4411566;32;20510;-67
2022/01/14 08:16:34;;;;;;;6.25;1.37;;;5.40;99.90;;;;;;4430211;32;20093;-67
2022/01/14 08:19:00;;;;;;;5.57;2.15;;;5.40;99.90;;;;;;4428927;32;20234;-67
2022/01/14 08:21:25;;;;;;;7.30;0.93;;;5.40;99.90;;;;;;4431382;32;20078;-68
2022/01/14 08:23:51;;;;;;;9.55;2.03;;;5.40;99.90;;;;;;4431483;32;20073;-68
2022/01/14 08:26:16;;;;;;;2.08;1.77;;;5.30;99.90;;;;;;4434059;32;20072;-68
2022/01/14 08:28:42;;;;;;;5.47;2.20;;;5.40;99.90;;;;;;4434700;32;20616;-68
2022/01/14 08:31:08;;;;;;;2.10;1.55;;;5.40;99.90;;;;;;4426609;32;20405;-68
2022/01/14 08:33:33;;;;;;;7.40;2.67;;;5.40;99.90;;;;;;4427924;32;20085;-67
2022/01/14 08:36:00;;;;;;;1.17;1.08;;;5.40;99.90;;;;;;4426590;32;20138;-67
2022/01/14 08:38:25;;;;;;;0.60;0.60;;;5.30;99.90;;;;;;4423866;32;20159;-67
2022/01/14 08:40:51;;;;;;;0.90;0.90;;;5.40;99.90;;;;;;4432126;32;20147;-68
2022/01/14 08:43:17;;;;;;;1.33;1.23;;;5.40;99.90;;;;;;4430410;32;20089;-66
2022/01/14 08:45:42;;;;;;;1.92;1.42;;;5.40;99.90;;;;;;4425233;32;20420;-66
2022/01/14 08:48:08;;;;;;;1.83;0.62;;;5.40;99.90;;;;;;4425960;32;20106;-67
2022/01/14 08:50:36;;;;;;;4.68;1.85;;;5.50;99.90;;;;;;4405666;32;20106;-67
2022/01/14 08:53:04;;;;;;;2.10;1.42;;;5.40;99.90;;;;;;4404809;32;20097;-67
2022/01/14 08:55:30;;;;;;;6.85;1.62;;;5.40;99.90;;;;;;4392742;32;20199;-67
2022/01/14 08:57:57;;;;;;;2.03;1.25;;;5.40;99.90;;;;;;4419732;32;20097;-66
2022/01/14 09:00:24;;;;;;;2.95;1.67;;;5.40;99.90;;;;;;4414959;32;20179;-66
2022/01/14 09:02:51;;;;;;;1.50;1.25;;;5.40;99.90;;;;;;4417338;32;20093;-66
2022/01/14 09:05:17;;;;;;;9.98;1.90;;;5.50;99.90;;;;;;4397931;32;20089;-66
2022/01/14 09:07:42;;;;;;;6.40;2.22;;;5.50;99.90;;;;;;4424862;32;20124;-66
2022/01/14 09:10:09;;;;;;;5.40;2.05;;;5.50;99.90;;;;;;4405639;32;20105;-67
2022/01/14 09:12:35;;;;;;;13.82;3.10;;;5.50;99.90;;;;;;4427703;32;20081;-67
2022/01/14 09:15:01;;;;;;;3.12;1.37;;;5.50;99.90;;;;;;4418182;32;20726;-67
2022/01/14 09:17:28;;;;;;;9.75;1.00;;;5.40;99.90;;;;;;4423684;32;20100;-67
2022/01/14 09:19:53;;;;;;;1.90;1.48;;;5.50;99.90;;;;;;4423980;32;20106;-67
2022/01/14 09:22:20;;;;;;;2.70;2.08;;;5.50;99.90;;;;;;4425237;32;20701;-67
2022/01/14 09:24:47;;;;;;;2.10;1.25;;;5.60;99.90;;;;;;4406083;32;20085;-67
2022/01/14 09:27:15;;;;;;;11.63;3.03;;;5.60;99.90;;;;;;4422747;32;20081;-67
2022/01/14 09:29:42;;;;;;;2.75;1.08;;;5.60;99.90;;;;;;4421069;32;20093;-67
2022/01/14 09:32:09;;;;;;;2.28;1.42;;;5.60;99.90;;;;;;4424564;32;20647;-67
2022/01/14 09:34:35;;;;;;;7.45;1.73;;;5.60;99.90;;;;;;4423561;32;20097;-67
2022/01/14 09:37:00;;;;;;;1.73;1.37;;;5.70;99.90;;;;;;4429604;32;20077;-67
2022/01/14 09:39:26;;;;;;;2.83;1.48;;;5.70;99.90;;;;;;4424089;32;20068;-67
2022/01/14 09:41:52;;;;;;;2.55;1.87;;;5.70;99.90;;;;;;4419197;32;20089;-67
2022/01/14 09:44:20;;;;;;;1.12;1.02;;;5.70;99.90;;;;;;4423167;32;20100;-67
2022/01/14 09:46:50;;;;;;;6.43;2.10;;;5.70;99.90;;;;;;4422983;32;20224;-67
2022/01/14 09:49:16;;;;;;;1.23;1.12;;;5.70;99.90;;;;;;4420183;32;20122;-69
2022/01/14 09:51:42;;;;;;;0.52;0.52;;;5.80;99.90;;;;;;4425588;32;20136;-68
2022/01/14 09:54:10;;;;;;;1.95;1.70;;;5.80;99.90;;;;;;4425955;32;20084;-68
2022/01/14 09:56:37;;;;;;;2.45;1.62;;;5.80;99.90;;;;;;4422493;32;20524;-68
2022/01/14 09:59:03;;;;;;;4.47;1.05;;;5.80;99.90;;;;;;4427006;32;20139;-67
2022/01/14 10:01:37;;;;;;;3.20;1.33;;;5.80;99.90;;;;;;4422118;32;20497;-67
2022/01/14 10:04:03;;;;;;;3.00;1.08;;;5.80;99.90;;;;;;4420485;32;20396;-67
2022/01/14 10:06:37;;;;;;;2.22;0.88;;;5.90;99.90;;;;;;4419983;32;20084;-68
2022/01/14 10:09:08;;;;;;;5.15;1.70;;;5.90;99.90;;;;;;4424242;32;20146;-68
2022/01/14 10:11:35;;;;;;;;;;;5.80;99.90;;;;;;4417586;32;20112;-67
2022/01/14 10:14:17;;;;;;;4.72;0.98;;;5.80;99.90;;;;;;4426722;32;20238;-67
2022/01/14 10:16:43;;;;;;;1.00;0.85;;;5.90;99.90;;;;;;4420969;32;20615;-67
2022/01/14 10:19:18;;;;;;;5.15;1.25;;;5.90;99.90;;;;;;4425283;32;20084;-67
2022/01/14 10:21:44;;;;;;;4.30;1.12;;;5.90;99.90;;;;;;4414355;32;20101;-68
2022/01/14 10:24:11;;;;;;;0.68;0.68;;;5.90;99.90;;;;;;4420878;32;20616;-68
2022/01/14 10:26:56;;;;;;;0.95;0.95;;;6.00;99.90;;;;;;4416797;32;20167;-67
2022/01/14 10:29:38;;;;;;;0.98;0.88;;;6.00;99.90;;;;;;4420305;32;20271;-66
2022/01/14 10:32:06;;;;;;;2.75;1.08;;;6.00;99.90;;;;;;4416092;32;20096;-67
2022/01/14 10:34:33;;;;;;;0.93;0.93;;;6.10;99.90;;;;;;4421115;32;20093;-67
2022/01/14 10:37:16;;;;;;;11.77;0.75;;;6.10;99.90;;;;;;4425316;32;21015;-68
2022/01/14 10:39:44;;;;;;;1.48;0.70;;;6.10;99.90;;;;;;4420169;32;20206;-68
2022/01/14 10:42:31;;;;;;;10.18;2.03;;;6.10;99.90;;;;;;4424026;32;20096;-67
2022/01/14 10:45:20;;;;;;;0.45;0.45;;;6.10;99.90;;;;;;4427654;32;20089;-68
2022/01/14 10:48:07;;;;;;;1.85;0.73;;;6.10;99.90;;;;;;4424493;32;20577;-68
2022/01/14 10:50:36;;;;;;;3.22;1.55;;;6.10;99.90;;;;;;4407266;32;20211;-68
2022/01/14 10:53:23;;;;;;;1.73;0.98;;;6.10;99.90;;;;;;4424021;32;20127;-68
2022/01/14 10:55:51;;;;;;;1.02;0.98;;;6.10;99.90;;;;;;4408462;32;20113;-68
2022/01/14 10:58:23;;;;;;;5.28;2.08;;;6.10;99.90;;;;;;4431152;32;20084;-68
2022/01/14 11:00:55;;;;;;;1.45;0.85;;;6.10;99.90;;;;;;4430956;32;20080;-68
2022/01/14 11:03:39;;;;;;;2.83;0.77;;;6.10;99.90;;;;;;4425247;32;20565;-68
2022/01/14 11:06:29;;;;;;;1.35;1.25;;;6.20;99.90;;;;;;4421268;32;20197;-67
2022/01/14 11:09:00;;;;;;;1.97;1.10;;;6.20;99.90;;;;;;4414793;32;20746;-67
2022/01/14 11:11:28;;;;;;;1.05;0.90;;;6.20;99.90;;;;;;4429373;32;20540;-66
2022/01/14 11:13:54;;;;;;;2.50;1.50;;;6.20;99.90;;;;;;4422495;32;20137;-67
2022/01/14 11:16:19;;;;;;;0.88;0.88;;;6.20;99.90;;;;;;4422404;32;20219;-67
2022/01/14 11:18:46;;;;;;;2.40;0.70;;;6.30;99.90;;;;;;4425386;32;20089;-67
2022/01/14 11:23:14;;;;;;;11.32;0.60;;;6.30;99.90;;;;;;4423728;32;20643;-67
2022/01/14 11:23:58;;;;;;;0.40;0.40;;;6.40;99.90;;;;;;4414643;32;20546;-67
2022/01/14 11:26:31;;;;;;;0.82;0.82;;;6.30;99.90;;;;;;4419481;32;20089;-68
2022/01/14 11:29:04;;;;;;;0.82;0.70;;;6.30;99.90;;;;;;4431181;32;20143;-67
2022/01/14 11:31:31;;;;;;;2.03;1.48;;;6.40;99.90;;;;;;4425738;32;20153;-67
2022/01/14 11:34:00;;;;;;;1.85;1.40;;;6.30;99.90;;;;;;4427288;32;20154;-67
2022/01/14 11:36:50;;;;;;;29.83;1.10;;;6.30;99.90;;;;;;4422418;32;20085;-68
2022/01/14 11:39:18;;;;;;;0.52;0.52;;;6.30;99.90;;;;;;4413667;32;20096;-67
2022/01/14 11:42:05;;;;;;;11.68;1.08;;;6.40;99.90;;;;;;4423602;32;20555;-67
2022/01/14 11:45:00;;;;;;;1.77;0.77;;;6.50;99.90;;;;;;4417505;32;20085;-68
2022/01/14 11:47:29;;;;;;;0.55;0.55;;;6.50;99.90;;;;;;4418560;32;20234;-67
2022/01/14 11:49:56;;;;;;;0.50;0.50;;;6.50;99.90;;;;;;4430384;32;20088;-67
2022/01/14 11:52:45;;;;;;;0.40;0.40;;;6.50;99.90;;;;;;4428852;32;20587;-67
2022/01/14 11:55:32;;;;;;;0.50;0.50;;;6.50;99.90;;;;;;4430962;32;20113;-68
2022/01/14 11:58:00;;;;;;;0.40;0.40;;;6.40;99.90;;;;;;4421137;32;20427;-66
2022/01/14 12:00:30;;;;;;;5.07;1.33;;;6.40;99.90;;;;;;4437071;32;20089;-66
2022/01/14 12:02:59;;;;;;;1.23;1.17;;;6.40;99.90;;;;;;4429017;32;20160;-67
2022/01/14 12:05:27;;;;;;;0.85;0.85;;;6.40;99.90;;;;;;4430980;32;20069;-66
2022/01/14 12:08:15;;;;;;;1.35;1.00;;;6.40;99.90;;;;;;4433808;32;20081;-67
2022/01/14 12:10:44;;;;;;;2.70;1.90;;;6.50;99.90;;;;;;4417226;32;20084;-67
2022/01/14 12:16:05;;;;;;;18.95;4.22;;;6.50;99.90;;;;;;4424561;32;20065;-67
2022/01/14 12:18:59;;;;;;;2.20;0.98;;;6.50;99.90;;;;;;4421800;32;20165;-67
2022/01/14 12:21:50;;;;;;;0.40;0.40;;;6.50;99.90;;;;;;4422266;32;20420;-66
2022/01/14 12:24:19;;;;;;;7.30;1.65;;;6.50;99.90;;;;;;4412883;32;20068;-66
2022/01/14 12:26:55;;;;;;;1.52;0.88;;;6.50;99.90;;;;;;4429765;32;20521;-66
2022/01/14 12:29:34;;;;;;;0.80;0.80;;;6.50;99.90;;;;;;4428911;32;20427;-67
2022/01/14 12:32:19;;;;;;;1.10;0.85;;;6.50;99.90;;;;;;4424690;32;20191;-67
2022/01/14 12:35:06;;;;;;;3.35;0.70;;;6.50;99.90;;;;;;4433750;32;20101;-67
2022/01/14 12:37:36;;;;;;;2.60;1.15;;;6.50;99.90;;;;;;4410725;32;20077;-67
2022/01/14 12:40:08;;;;;;;0.93;0.70;;;6.50;99.90;;;;;;4420090;32;20081;-68
2022/01/14 12:42:34;;;;;;;0.85;0.85;;;6.50;99.90;;;;;;4432293;32;20105;-67
2022/01/14 12:45:00;;;;;;;1.55;0.88;;;6.60;99.90;;;;;;4435443;32;20077;-67
2022/01/14 12:47:31;;;;;;;27.48;1.42;;;6.60;99.90;;;;;;4432895;32;20077;-67
2022/01/14 12:50:04;;;;;;;2.75;1.48;;;6.60;99.90;;;;;;4433408;32;20211;-67
2022/01/14 12:52:38;;;;;;;1.27;1.10;;;6.70;99.90;;;;;;4418364;32;20105;-67
2022/01/14 12:55:06;;;;;;;2.58;1.80;;;6.60;99.90;;;;;;4417139;32;20132;-67
2022/01/14 12:57:32;;;;;;;1.00;0.62;;;6.70;99.90;;;;;;4433262;32;20060;-68
2022/01/14 12:59:57;;;;;;;0.50;0.50;;;6.70;99.90;;;;;;4431023;32;20076;-66
2022/01/14 13:02:26;;;;;;;0.88;0.77;;;6.70;99.90;;;;;;4434584;32;20081;-68
2022/01/14 13:05:15;;;;;;;0.70;0.60;;;6.80;99.90;;;;;;4430923;32;20069;-67
2022/01/14 13:07:41;;;;;;;0.70;0.70;;;6.70;99.90;;;;;;4434175;32;20135;-67
2022/01/14 13:10:08;;;;;;;1.55;1.27;;;6.70;99.90;;;;;;4434947;32;20076;-67
2022/01/14 13:12:40;;;;;;;4.40;1.10;;;6.80;99.90;;;;;;4434202;32;20089;-67
2022/01/14 13:15:09;;;;;;;0.98;0.75;;;6.80;99.90;;;;;;4436296;32;20131;-67
2022/01/14 13:17:39;;;;;;;0.57;0.57;;;6.80;99.90;;;;;;4435706;32;20133;-67
2022/01/14 13:20:07;;;;;;;2.58;0.60;;;6.80;99.90;;;;;;4437729;32;20454;-67
2022/01/14 13:22:33;;;;;;;0.43;0.43;;;6.90;99.90;;;;;;4435076;32;20474;-67
2022/01/14 13:25:01;;;;;;;0.55;0.55;;;6.80;99.90;;;;;;4432666;32;20124;-67
2022/01/14 13:27:32;;;;;;;3.12;1.05;;;6.80;99.90;;;;;;4433370;32;20078;-67